Time;durP1;ratioP1;P1;durP2;ratioP2;P2;SDS_P1;SDS_P2;PMS_P1;PMS_P2;Temp;Humidity;BMP_temperature;BMP_pressure;BME280_temperature;BME280_humidity;BME280_pressure;Samples;Min_cycle;Max_cycle;Signal;HPM_P1;HPM_P2
2024/04/18 00:01:30;;;;;;;3.95;1.52;;;;;;;8.51;58.71;101621.53;5363445;26;94733;-89
2024/04/18 00:03:55;;;;;;;3.33;1.40;;;;;;;8.50;58.90;101631.06;5358854;26;94791;-89
2024/04/18 00:06:21;;;;;;;4.18;2.90;;;;;;;8.51;59.18;101627.63;5397926;26;95772;-88
2024/04/18 00:08:46;;;;;;;3.10;1.63;;;;;;;8.50;59.17;101623.25;5370527;26;94756;-89
2024/04/18 00:11:23;;;;;;;4.57;1.63;;;;;;;8.52;59.08;101631.09;5369605;26;94741;-89
2024/04/18 00:13:49;;;;;;;3.83;1.60;;;;;;;8.52;59.14;101633.69;5352153;26;94896;-89
2024/04/18 00:16:33;;;;;;;4.68;2.20;;;;;;;8.51;59.02;101634.53;5349827;26;95875;-88
2024/04/18 00:19:14;;;;;;;4.25;2.22;;;;;;;8.52;58.81;101638.88;5359320;26;97713;-88
2024/04/18 00:21:54;;;;;;;3.55;1.48;;;;;;;8.52;58.86;101637.19;5376268;26;94755;-88
2024/04/18 00:24:29;;;;;;;3.65;2.53;;;;;;;8.51;59.00;101640.63;5358848;26;95054;-89
2024/04/18 00:26:55;;;;;;;4.25;1.52;;;;;;;8.50;58.64;101646.66;5343579;26;97402;-89
2024/04/18 00:29:31;;;;;;;3.47;1.95;;;;;;;8.50;58.77;101646.66;5341601;26;98383;-90
2024/04/18 00:32:07;;;;;;;;;;;;;;;8.45;58.73;101648.22;5387402;26;94814;-89
2024/04/18 00:34:32;;;;;;;4.00;2.15;;;;;;;8.46;58.32;101655.16;5364575;26;94920;-89
2024/04/18 00:36:57;;;;;;;4.93;1.98;;;;;;;8.43;58.71;101659.38;5384793;26;96107;-89
2024/04/18 00:39:23;;;;;;;3.72;1.60;;;;;;;8.36;58.81;101660.88;5370603;26;95775;-89
2024/04/18 00:42:01;;;;;;;4.30;2.85;;;;;;;8.31;58.53;101652.91;5365820;26;94885;-89
2024/04/18 00:44:29;;;;;;;4.00;2.10;;;;;;;8.27;58.59;101669.22;5363068;26;94921;-89
2024/04/18 00:47:12;;;;;;;3.95;1.60;;;;;;;8.25;58.67;101670.88;5344449;26;97458;-90
2024/04/18 00:49:38;;;;;;;4.28;2.20;;;;;;;8.23;58.89;101669.06;5372334;26;96648;-90
2024/04/18 00:52:04;;;;;;;5.35;1.85;;;;;;;8.20;58.68;101664.66;5382524;26;94869;-89
2024/04/18 00:54:30;;;;;;;4.68;2.70;;;;;;;8.19;58.91;101668.94;5327034;26;95015;-89
2024/04/18 00:56:58;;;;;;;3.72;1.63;;;;;;;8.18;58.70;101669.78;5364145;26;98501;-90
2024/04/18 00:59:26;;;;;;;3.38;1.63;;;;;;;8.16;58.81;101668.84;5371287;26;94758;-89
2024/04/18 01:02:11;;;;;;;5.38;2.72;;;;;;;8.13;58.62;101676.53;5354048;26;94897;-89
2024/04/18 01:04:39;;;;;;;3.88;2.20;;;;;;;8.09;58.53;101672.06;5368886;26;94944;-89
2024/04/18 01:07:10;;;;;;;4.45;2.50;;;;;;;8.07;58.39;101671.09;5358343;26;98649;-90
2024/04/18 01:09:44;;;;;;;3.20;1.75;;;;;;;8.01;58.48;101673.50;5376466;26;95591;-89
2024/04/18 01:12:09;;;;;;;4.32;2.42;;;;;;;7.96;58.23;101678.50;5362038;26;94869;-90
2024/04/18 01:14:35;;;;;;;4.32;2.00;;;;;;;7.92;58.47;101674.03;5371123;26;94955;-90
2024/04/18 01:17:04;;;;;;;4.80;1.65;;;;;;;7.87;58.80;101680.78;5369772;26;98261;-90
2024/04/18 01:19:30;;;;;;;3.97;1.70;;;;;;;7.81;58.48;101689.22;5371575;26;94826;-90
2024/04/18 01:21:56;;;;;;;4.28;1.60;;;;;;;7.75;58.78;101686.41;5354197;26;94754;-90
2024/04/18 01:24:21;;;;;;;4.72;1.80;;;;;;;7.72;58.87;101686.28;5335007;26;94948;-90
2024/04/18 01:26:47;;;;;;;4.90;1.90;;;;;;;7.70;58.93;101692.25;5372071;26;98600;-90
2024/04/18 01:29:12;;;;;;;4.50;1.52;;;;;;;7.68;58.94;101692.16;5342406;26;96443;-90
2024/04/18 01:31:58;;;;;;;3.80;1.70;;;;;;;7.67;58.55;101689.53;5372258;26;95018;-89
2024/04/18 01:34:23;;;;;;;3.40;2.45;;;;;;;7.66;58.76;101695.56;5398914;26;95109;-89
2024/04/18 01:37:13;;;;;;;4.10;2.38;;;;;;;7.60;58.77;101699.69;5369432;26;96076;-88
2024/04/18 01:39:39;;;;;;;3.97;1.77;;;;;;;7.55;58.52;101705.53;5357880;26;95667;-89
2024/04/18 01:42:04;;;;;;;4.22;1.77;;;;;;;7.51;58.84;101703.66;5397047;26;94829;-89
2024/04/18 01:44:43;;;;;;;4.13;2.30;;;;;;;7.47;58.75;101699.13;5387177;26;94885;-92
2024/04/18 01:47:27;;;;;;;5.07;1.95;;;;;;;7.44;58.72;101713.78;5401570;26;95282;-92
2024/04/18 01:50:05;;;;;;;6.35;2.45;;;;;;;7.43;58.99;101703.34;5375622;26;97726;-92
2024/04/18 01:52:30;;;;;;;5.25;2.33;;;;;;;7.41;59.02;101713.66;5375340;26;94549;-92
2024/04/18 01:55:01;;;;;;;3.58;1.88;;;;;;;7.41;58.82;101710.19;5375989;26;94883;-92
2024/04/18 01:57:35;;;;;;;3.85;1.63;;;;;;;7.38;58.86;101720.44;5375693;26;94819;-92
2024/04/18 02:00:19;;;;;;;4.50;1.88;;;;;;;7.32;58.58;101718.47;5401914;26;95042;-92
2024/04/18 02:02:45;;;;;;;5.05;1.63;;;;;;;7.26;58.78;101714.78;5376125;26;94634;-91
2024/04/18 02:05:10;;;;;;;4.72;1.90;;;;;;;7.23;58.95;101724.19;5375940;26;94883;-92
2024/04/18 02:07:42;;;;;;;4.55;1.92;;;;;;;7.20;59.21;101723.19;5375225;26;97396;-92
2024/04/18 02:10:07;;;;;;;4.50;2.30;;;;;;;7.18;58.85;101730.03;5377403;26;95834;-92
2024/04/18 02:12:56;;;;;;;5.30;2.50;;;;;;;7.15;58.86;101735.09;5401287;26;94917;-92
2024/04/18 02:15:41;;;;;;;3.53;1.75;;;;;;;7.13;58.95;101734.13;5376323;26;95011;-93
2024/04/18 02:18:13;;;;;;;3.75;2.30;;;;;;;7.11;59.00;101730.59;5375353;26;98235;-91
2024/04/18 02:20:41;;;;;;;4.57;2.60;;;;;;;7.08;59.04;101740.84;5375587;26;98499;-91
2024/04/18 02:23:22;;;;;;;4.40;2.08;;;;;;;7.05;59.07;101744.22;5375830;26;94567;-91
2024/04/18 02:25:48;;;;;;;3.65;1.70;;;;;;;7.02;59.18;101744.97;5405719;26;94892;-90
2024/04/18 02:28:13;;;;;;;4.20;1.70;;;;;;;7.02;59.21;101744.06;5375470;26;98577;-92
2024/04/18 02:30:39;;;;;;;4.38;1.90;;;;;;;7.03;59.09;101751.91;5377122;26;95732;-92
2024/04/18 02:33:14;;;;;;;3.50;1.90;;;;;;;7.04;58.98;101753.69;5375778;26;94639;-91
2024/04/18 02:35:48;;;;;;;3.40;1.90;;;;;;;7.03;59.02;101749.31;5406319;26;94902;-91
2024/04/18 02:38:34;;;;;;;3.70;2.00;;;;;;;7.03;59.19;101751.03;5376662;26;95250;-92
2024/04/18 02:41:07;;;;;;;4.97;1.90;;;;;;;7.01;59.02;101753.56;5375195;26;98787;-92
2024/04/18 02:43:50;;;;;;;4.70;2.72;;;;;;;7.00;59.15;101754.38;5372970;26;94640;-93
2024/04/18 02:46:15;;;;;;;5.57;1.90;;;;;;;6.97;58.87;101756.88;5375533;26;94545;-92
2024/04/18 02:49:00;;;;;;;4.45;2.05;;;;;;;6.93;59.20;101759.25;5376306;26;96571;-92
2024/04/18 02:51:26;;;;;;;3.67;1.73;;;;;;;6.87;59.01;101765.06;5375097;26;97524;-92
2024/04/18 02:54:10;;;;;;;4.38;2.05;;;;;;;6.82;59.03;101767.47;5375302;26;94527;-92
2024/04/18 02:56:36;;;;;;;3.90;1.90;;;;;;;6.81;59.30;101764.81;5375584;26;94952;-92
2024/04/18 02:59:07;;;;;;;3.58;1.90;;;;;;;6.80;59.23;101776.00;5374761;26;98540;-92
2024/04/18 03:01:46;;;;;;;4.63;2.00;;;;;;;6.79;58.98;101772.53;5375035;26;98493;-91
2024/04/18 03:04:11;;;;;;;5.03;2.45;;;;;;;6.78;59.11;101782.84;5375127;26;94623;-92
2024/04/18 03:06:37;;;;;;;7.40;3.30;;;;;;;6.76;59.08;101784.47;5396596;26;94785;-88
2024/04/18 03:09:09;;;;;;;4.10;2.03;;;;;;;6.72;59.29;101791.25;5383752;26;95604;-89
2024/04/18 03:11:51;;;;;;;5.90;3.22;;;;;;;6.68;59.13;101802.28;5369163;26;96233;-89
2024/04/18 03:14:16;;;;;;;4.32;2.70;;;;;;;6.64;59.32;101801.25;5327207;26;94816;-89
2024/04/18 03:16:58;;;;;;;7.57;3.58;;;;;;;6.61;59.25;101808.00;5368005;26;94901;-89
2024/04/18 03:19:43;;;;;;;4.70;2.83;;;;;;;6.59;59.38;101810.53;5375712;26;95940;-89
2024/04/18 03:22:24;;;;;;;5.25;2.13;;;;;;;6.59;59.46;101810.53;5380093;26;94705;-89
2024/04/18 03:25:00;;;;;;;5.70;2.95;;;;;;;6.60;59.46;101803.66;5339518;26;94909;-89
2024/04/18 03:27:25;;;;;;;5.13;2.25;;;;;;;6.63;59.31;101803.78;5359503;26;94944;-88
2024/04/18 03:29:50;;;;;;;4.05;2.42;;;;;;;6.64;59.16;101808.16;5382333;26;98835;-88
2024/04/18 03:32:31;;;;;;;5.07;2.30;;;;;;;6.62;59.23;101810.69;5364009;26;98655;-89
2024/04/18 03:34:57;;;;;;;4.90;2.15;;;;;;;6.60;59.01;101814.91;5340990;26;95028;-89
2024/04/18 03:37:23;;;;;;;5.40;2.45;;;;;;;6.58;59.30;101818.28;5350873;26;94884;-89
2024/04/18 03:39:48;;;;;;;5.85;2.20;;;;;;;6.54;59.37;101822.44;5337595;26;95529;-89
2024/04/18 03:42:14;;;;;;;4.47;2.25;;;;;;;6.56;59.40;101823.38;5363299;26;95654;-89
2024/04/18 03:44:52;;;;;;;5.05;2.97;;;;;;;6.55;59.17;101820.72;5365141;26;94827;-90
2024/04/18 03:47:17;;;;;;;5.80;2.95;;;;;;;6.54;59.15;101826.72;5391951;26;94874;-89
2024/04/18 03:50:06;;;;;;;5.13;2.33;;;;;;;6.53;59.29;101824.97;5326985;26;95477;-89
2024/04/18 03:52:38;;;;;;;5.53;2.40;;;;;;;6.51;59.02;101829.19;5326774;26;97203;-89
2024/04/18 03:55:24;;;;;;;6.90;3.20;;;;;;;6.48;59.32;101832.50;5260339;26;94878;-89
2024/04/18 03:57:49;;;;;;;6.03;3.30;;;;;;;6.45;59.27;101830.69;5222066;26;94969;-89
2024/04/18 04:00:15;;;;;;;5.72;2.63;;;;;;;6.45;59.56;101841.06;5252839;26;98063;-89
2024/04/18 04:02:40;;;;;;;6.55;3.58;;;;;;;6.46;59.47;101840.22;5258661;26;95848;-89
2024/04/18 04:05:06;;;;;;;5.45;3.38;;;;;;;6.49;59.40;101842.06;5247457;26;94921;-89
2024/04/18 04:07:31;;;;;;;6.18;2.53;;;;;;;6.51;59.27;101839.56;5237878;26;95103;-89
2024/04/18 04:09:57;;;;;;;5.85;3.45;;;;;;;6.51;59.54;101848.22;5210411;26;98473;-89
2024/04/18 04:12:22;;;;;;;5.15;2.22;;;;;;;6.51;59.37;101848.22;5266046;26;94933;-89
2024/04/18 04:15:07;;;;;;;6.80;2.80;;;;;;;6.50;59.46;101848.13;5222661;26;94962;-88
2024/04/18 04:17:32;;;;;;;6.65;2.42;;;;;;;6.46;59.55;101852.28;5256639;26;94878;-89
2024/04/18 04:20:06;;;;;;;5.03;2.40;;;;;;;6.44;59.44;101854.81;5214777;26;97559;-89
2024/04/18 04:22:32;;;;;;;6.63;2.50;;;;;;;6.44;59.70;101853.94;5258835;26;97807;-88
2024/04/18 04:24:57;;;;;;;6.32;2.78;;;;;;;6.43;59.29;101855.63;5245504;26;94937;-89
2024/04/18 04:27:22;;;;;;;4.88;3.05;;;;;;;6.44;59.67;101851.34;5260168;26;95018;-89
2024/04/18 04:29:48;;;;;;;5.18;2.63;;;;;;;6.46;59.25;101854.88;5205745;26;98557;-89
2024/04/18 04:32:21;;;;;;;6.35;2.53;;;;;;;6.45;59.39;101860.88;5273176;26;97756;-88
2024/04/18 04:34:51;;;;;;;7.75;3.17;;;;;;;6.44;59.57;101862.59;5367111;26;94774;-89
2024/04/18 04:37:17;;;;;;;5.15;3.38;;;;;;;6.44;59.62;101865.19;5333142;26;94836;-88
2024/04/18 04:39:43;;;;;;;6.20;3.38;;;;;;;6.45;59.18;101872.16;5382875;26;95824;-89
2024/04/18 04:42:18;;;;;;;5.80;2.65;;;;;;;6.47;59.55;101870.50;5369872;26;95765;-89
2024/04/18 04:44:43;;;;;;;4.95;2.40;;;;;;;6.47;59.33;101869.59;5366225;26;94935;-88
2024/04/18 04:47:27;;;;;;;4.97;3.50;;;;;;;6.44;59.34;101875.53;5327960;26;94898;-88
2024/04/18 04:49:52;;;;;;;6.97;2.60;;;;;;;6.42;59.52;101878.91;5392330;26;98348;-89
2024/04/18 04:52:34;;;;;;;5.00;2.60;;;;;;;6.42;59.60;101884.09;5382444;26;95592;-92
2024/04/18 04:55:00;;;;;;;4.80;2.35;;;;;;;6.42;59.59;101890.16;5371969;26;94735;-89
2024/04/18 04:57:25;;;;;;;5.53;3.03;;;;;;;6.43;59.70;101886.72;5340915;26;94811;-89
2024/04/18 05:00:12;;;;;;;7.93;3.70;;;;;;;6.46;59.48;101893.75;5349257;26;96516;-88
2024/04/18 05:02:56;;;;;;;5.78;2.60;;;;;;;6.45;59.61;101895.47;5373097;26;95901;-88
2024/04/18 05:05:21;;;;;;;8.07;3.13;;;;;;;6.45;59.43;101910.13;5382484;26;94718;-86
2024/04/18 05:08:01;;;;;;;6.15;2.58;;;;;;;6.45;59.82;101912.72;5341985;26;95002;-89
2024/04/18 05:10:43;;;;;;;6.53;2.78;;;;;;;6.48;59.90;101929.28;5343365;26;97357;-87
2024/04/18 05:13:12;;;;;;;6.22;3.45;;;;;;;6.51;59.84;101933.75;5364761;26;95904;-89
2024/04/18 05:15:39;;;;;;;7.10;3.28;;;;;;;6.55;60.01;101933.06;5393722;26;94791;-88
2024/04/18 05:18:05;;;;;;;8.88;3.53;;;;;;;6.58;60.15;101943.59;5363168;26;94952;-88
2024/04/18 05:20:31;;;;;;;8.07;3.50;;;;;;;6.63;60.18;101939.50;5336225;26;98662;-88
2024/04/18 05:22:56;;;;;;;8.00;4.32;;;;;;;6.66;60.58;101942.22;5363351;26;98780;-88
2024/04/18 05:25:25;;;;;;;6.18;3.25;;;;;;;6.75;60.59;101953.84;5338774;26;94774;-88
2024/04/18 05:28:12;;;;;;;7.65;4.05;;;;;;;6.83;60.55;101947.31;5365749;26;94980;-89
2024/04/18 05:33:25;;;;;;;6.55;2.95;;;;;;;7.02;61.09;101952.50;5351248;26;95915;-88
2024/04/18 05:35:51;;;;;;;9.52;4.40;;;;;;;7.14;61.41;101964.25;5365545;26;94894;-89
2024/04/18 05:38:16;;;;;;;11.77;3.83;;;;;;;7.25;61.23;101970.78;5397926;26;94779;-88
2024/04/18 05:40:42;;;;;;;11.88;3.95;;;;;;;7.38;61.70;101977.41;5348227;26;97754;-89
2024/04/18 05:43:07;;;;;;;7.90;3.40;;;;;;;7.52;61.95;101983.19;5350891;26;95595;-89
2024/04/18 05:45:46;;;;;;;8.57;2.95;;;;;;;7.67;62.16;101983.00;5367080;26;94927;-89
2024/04/18 05:48:11;;;;;;;7.80;2.65;;;;;;;7.81;62.11;101974.06;5342399;26;94904;-90
2024/04/18 05:50:37;;;;;;;7.00;1.83;;;;;;;7.94;62.42;101970.25;5366485;26;99914;-90
2024/04/18 05:53:02;;;;;;;5.53;2.42;;;;;;;8.11;62.22;101968.34;5396872;26;95625;-90
2024/04/18 05:55:48;;;;;;;4.82;1.60;;;;;;;8.30;62.71;101963.06;5377878;26;94894;-90
2024/04/18 05:58:16;;;;;;;4.22;1.77;;;;;;;8.49;62.29;101956.03;5328332;26;94958;-91
2024/04/18 06:00:53;;;;;;;4.30;1.25;;;;;;;8.68;62.29;101962.81;5363759;26;98517;-90
2024/04/18 06:03:19;;;;;;;3.95;2.03;;;;;;;8.80;62.49;101952.88;5385934;26;97532;-90
2024/04/18 06:05:45;;;;;;;3.83;1.35;;;;;;;8.90;62.15;101962.78;5356983;26;94797;-90
2024/04/18 06:08:14;;;;;;;3.75;2.05;;;;;;;8.99;62.31;101962.25;5370003;26;94916;-90
2024/04/18 06:10:41;;;;;;;5.40;2.00;;;;;;;9.10;61.98;101966.13;5323641;26;98372;-90
2024/04/18 06:13:22;;;;;;;3.17;1.95;;;;;;;9.23;62.01;101974.38;5322196;26;98884;-90
2024/04/18 06:15:48;;;;;;;2.90;1.77;;;;;;;9.33;62.33;101971.28;5354548;26;94942;-90
2024/04/18 06:18:13;;;;;;;3.53;1.40;;;;;;;9.43;62.04;101968.19;5397521;26;94941;-90
2024/04/18 06:20:44;;;;;;;3.08;1.63;;;;;;;9.50;61.94;101975.38;5363106;26;95463;-90
2024/04/18 06:23:11;;;;;;;9.82;1.67;;;;;;;9.58;62.03;101983.44;5353622;26;97358;-90
2024/04/18 06:25:37;;;;;;;3.53;1.50;;;;;;;9.70;62.86;101985.59;5366063;26;94800;-91
2024/04/18 06:28:04;;;;;;;4.50;1.52;;;;;;;9.90;63.93;101988.88;5342504;26;94732;-93
2024/04/18 06:30:30;;;;;;;4.68;2.13;;;;;;;10.17;64.70;101990.63;5397270;26;97097;-93
2024/04/18 06:32:56;;;;;;;6.82;1.77;;;;;;;10.64;65.78;101989.56;5371698;26;98483;-93
2024/04/18 06:35:22;;;;;;;3.80;1.42;;;;;;;11.04;64.84;101992.47;5371809;26;94813;-93
2024/04/18 06:37:48;;;;;;;5.85;1.77;;;;;;;11.39;64.85;101993.47;5348705;26;94882;-91
2024/04/18 06:40:19;;;;;;;3.85;1.60;;;;;;;11.77;64.16;101997.94;5334795;26;98720;-92
2024/04/18 06:42:44;;;;;;;3.20;1.77;;;;;;;12.04;63.43;101997.78;5371849;26;98489;-91
2024/04/18 06:45:10;;;;;;;5.53;1.90;;;;;;;12.23;62.07;102007.00;5369496;26;94988;-91
2024/04/18 06:47:35;;;;;;;4.45;2.00;;;;;;;12.28;60.76;102005.38;5334257;26;94810;-93
2024/04/18 06:50:07;;;;;;;4.85;2.10;;;;;;;12.24;60.07;102011.34;5353815;26;95664;-93
2024/04/18 06:52:32;;;;;;;4.88;1.75;;;;;;;12.20;59.72;102012.13;5373496;26;97542;-92
2024/04/18 06:54:58;;;;;;;3.65;2.42;;;;;;;12.17;59.83;102017.28;5319710;26;94815;-91
2024/04/18 06:57:41;;;;;;;5.25;1.80;;;;;;;12.20;59.83;102014.75;5359259;26;94920;-92
2024/04/18 07:00:10;;;;;;;6.20;1.95;;;;;;;12.21;59.49;102023.47;5392004;26;97420;-92
2024/04/18 07:02:35;;;;;;;6.00;3.05;;;;;;;12.19;59.15;102024.34;5388584;26;95854;-92
2024/04/18 07:05:19;;;;;;;5.10;2.08;;;;;;;12.16;59.18;102031.22;5363325;26;94724;-92
2024/04/18 07:07:45;;;;;;;6.72;3.13;;;;;;;12.13;59.32;102025.91;5338686;26;94999;-92
2024/04/18 07:10:30;;;;;;;4.95;1.90;;;;;;;12.10;59.35;102034.56;5376254;26;96806;-93
2024/04/18 07:12:55;;;;;;;5.32;2.30;;;;;;;12.12;59.39;102038.13;5382682;26;94779;-93
2024/04/18 07:15:21;;;;;;;5.22;2.10;;;;;;;12.15;59.62;102035.56;5350191;26;94815;-93
2024/04/18 07:18:06;;;;;;;6.45;2.85;;;;;;;12.25;60.27;102035.81;5393903;26;94818;-94
2024/04/18 07:20:32;;;;;;;6.75;2.40;;;;;;;12.36;60.15;102042.19;5372245;26;94954;-93
2024/04/18 07:23:03;;;;;;;3.85;1.90;;;;;;;12.49;60.27;102036.38;5395412;26;95542;-92
2024/04/18 07:25:29;;;;;;;12.30;3.47;;;;;;;12.63;60.40;102035.81;5342519;26;94899;-93
2024/04/18 07:27:54;;;;;;;6.00;2.55;;;;;;;12.85;60.89;102042.44;5377150;26;94827;-92
2024/04/18 07:30:20;;;;;;;4.03;1.80;;;;;;;13.16;60.73;102035.25;5380062;26;94812;-92
2024/04/18 07:32:46;;;;;;;4.07;1.80;;;;;;;13.33;59.33;102041.72;5374624;26;98346;-92
2024/04/18 07:35:12;;;;;;;4.97;2.00;;;;;;;13.35;58.87;102042.69;5395790;26;94849;-92
2024/04/18 07:37:39;;;;;;;7.13;1.90;;;;;;;13.48;59.80;102039.44;5377520;26;94867;-93
2024/04/18 07:40:11;;;;;;;4.30;2.40;;;;;;;13.77;59.76;102038.22;5382723;26;98422;-93
2024/04/18 07:42:37;;;;;;;3.63;1.70;;;;;;;14.04;59.69;102040.44;5391876;26;94733;-93
2024/04/18 07:45:05;;;;;;;3.72;1.90;;;;;;;14.17;58.97;102039.81;5376210;26;94783;-93
2024/04/18 07:47:31;;;;;;;4.85;2.20;;;;;;;14.31;58.77;102045.25;5369771;26;94960;-92
2024/04/18 07:49:56;;;;;;;4.57;1.75;;;;;;;14.38;57.64;102044.50;5388386;26;95752;-93
2024/04/18 07:52:21;;;;;;;2.83;1.90;;;;;;;14.37;57.22;102044.50;5382331;26;97661;-92
2024/04/18 07:54:47;;;;;;;3.55;1.52;;;;;;;14.33;56.30;102050.53;5373934;26;94891;-92
2024/04/18 07:57:13;;;;;;;3.17;2.35;;;;;;;14.21;55.93;102051.25;5381690;26;94899;-93
2024/04/18 07:59:38;;;;;;;3.10;1.70;;;;;;;14.04;55.57;102059.69;5387967;26;98062;-92
2024/04/18 08:02:03;;;;;;;3.42;1.88;;;;;;;13.85;55.39;102053.25;5347722;26;98325;-93
2024/04/18 08:04:29;;;;;;;5.05;2.15;;;;;;;13.65;55.52;102060.75;5349308;26;94871;-93
2024/04/18 08:06:54;;;;;;;4.95;2.33;;;;;;;13.47;55.66;102061.22;5365504;26;94900;-92
2024/04/18 08:09:20;;;;;;;3.33;1.60;;;;;;;13.31;55.95;102065.31;5324982;26;98451;-92
2024/04/18 08:11:45;;;;;;;8.35;1.88;;;;;;;13.14;55.97;102078.00;5339859;26;97512;-92
2024/04/18 08:14:12;;;;;;;3.40;1.80;;;;;;;12.98;56.27;102068.03;5387209;26;94891;-93
2024/04/18 08:16:37;;;;;;;3.42;1.42;;;;;;;12.87;56.34;102072.13;5337431;26;94899;-92
2024/04/18 08:19:03;;;;;;;3.53;2.00;;;;;;;12.76;56.83;102064.94;5371696;26;98661;-91
2024/04/18 08:21:28;;;;;;;5.15;1.52;;;;;;;12.69;56.98;102076.13;5351552;26;95584;-92
2024/04/18 08:23:56;;;;;;;3.20;1.42;;;;;;;12.62;57.44;102082.06;5352674;26;94911;-91
2024/04/18 08:26:22;;;;;;;3.70;2.45;;;;;;;12.85;60.28;102079.09;5375075;26;95075;-92
2024/04/18 08:28:47;;;;;;;3.53;1.50;;;;;;;13.43;60.43;102075.16;5368775;26;94786;-92
2024/04/18 08:31:13;;;;;;;3.75;1.40;;;;;;;13.67;59.96;102081.72;5371281;26;95909;-92
2024/04/18 08:33:38;;;;;;;5.68;1.75;;;;;;;14.58;61.59;102081.63;5377120;26;94830;-92
2024/04/18 08:36:04;;;;;;;5.50;1.60;;;;;;;15.94;61.13;102081.66;5374145;26;94994;-92
2024/04/18 08:38:29;;;;;;;2.95;1.50;;;;;;;17.24;59.16;102072.97;5392014;26;96422;-93
2024/04/18 08:41:00;;;;;;;4.63;1.40;;;;;;;18.20;56.78;102071.47;5404768;26;95943;-93
2024/04/18 08:43:27;;;;;;;2.83;1.20;;;;;;;19.01;55.18;102072.28;5349839;26;95017;-93
2024/04/18 08:45:54;;;;;;;4.88;1.27;;;;;;;19.58;53.68;102074.69;5389407;26;94868;-93
2024/04/18 08:48:22;;;;;;;4.55;1.17;;;;;;;19.93;52.17;102071.88;5385662;26;98407;-95
2024/04/18 08:50:47;;;;;;;5.57;1.60;;;;;;;20.05;49.29;102070.00;5367404;26;95931;-94
2024/04/18 08:53:12;;;;;;;6.30;1.20;;;;;;;19.52;49.10;102072.97;5406441;26;94645;-93
2024/04/18 08:55:44;;;;;;;4.47;1.13;;;;;;;19.31;48.47;102076.59;5376704;26;94855;-94
2024/04/18 08:58:12;;;;;;;4.55;0.80;;;;;;;19.46;48.30;102064.16;5346197;26;97724;-93
2024/04/18 09:00:44;;;;;;;3.72;0.75;;;;;;;19.56;47.49;102076.47;5376714;26;97687;-93
2024/04/18 09:03:10;;;;;;;4.70;0.75;;;;;;;19.75;47.82;102077.25;5346749;26;94786;-93
2024/04/18 09:05:36;;;;;;;2.40;0.82;;;;;;;19.96;47.22;102081.53;5347399;26;94622;-93
2024/04/18 09:08:05;;;;;;;4.32;1.42;;;;;;;20.10;46.96;102082.31;5346653;26;97783;-92
2024/04/18 09:10:31;;;;;;;2.78;0.57;;;;;;;20.33;46.73;102082.16;5406617;26;95814;-94
2024/04/18 09:12:56;;;;;;;2.45;0.98;;;;;;;20.64;45.50;102075.72;5376870;26;94741;-93
2024/04/18 09:15:22;;;;;;;4.65;0.65;;;;;;;20.92;44.63;102074.53;5407375;26;94997;-94
2024/04/18 09:18:07;;;;;;;3.67;0.80;;;;;;;21.10;44.82;102076.13;5376937;26;96637;-94
2024/04/18 09:20:35;;;;;;;5.07;0.80;;;;;;;21.22;42.93;102082.16;5348244;26;95918;-94
2024/04/18 09:23:01;;;;;;;3.40;1.13;;;;;;;20.96;43.10;102072.72;5377341;26;94684;-93
2024/04/18 09:25:27;;;;;;;3.20;0.85;;;;;;;20.83;42.70;102073.78;5348583;26;94625;-94
2024/04/18 09:27:52;;;;;;;4.00;0.60;;;;;;;20.62;41.72;102078.38;5377090;26;97678;-94
2024/04/18 09:30:18;;;;;;;2.00;0.55;;;;;;;20.46;41.50;102076.75;5378234;26;95791;-93
2024/04/18 09:32:44;;;;;;;1.95;0.65;;;;;;;20.24;40.49;102082.22;5378129;26;94591;-93
2024/04/18 09:35:11;;;;;;;2.30;0.73;;;;;;;20.03;40.57;102085.03;5378554;26;94606;-92
2024/04/18 09:37:40;;;;;;;2.15;1.13;;;;;;;19.59;39.37;102074.69;5377652;26;96699;-94
2024/04/18 09:40:10;;;;;;;4.03;1.10;;;;;;;19.20;40.77;102073.13;5407738;26;95866;-94
2024/04/18 09:42:59;;;;;;;3.47;1.20;;;;;;;18.88;40.76;102075.88;5347560;26;94701;-94
2024/04/18 09:45:33;;;;;;;2.72;0.80;;;;;;;18.51;40.24;102084.69;5377120;26;94965;-93
2024/04/18 09:48:00;;;;;;;3.88;0.90;;;;;;;18.09;40.75;102081.13;5376694;26;94934;-92
2024/04/18 09:50:26;;;;;;;3.30;1.10;;;;;;;17.84;41.53;102081.09;5347019;26;96845;-92
2024/04/18 09:52:53;;;;;;;3.72;0.85;;;;;;;17.74;42.14;102089.84;5376467;26;94642;-93
2024/04/18 09:55:20;;;;;;;3.85;0.65;;;;;;;17.67;41.42;102088.06;5347078;26;94963;-94
2024/04/18 09:57:47;;;;;;;2.83;1.17;;;;;;;17.60;41.76;102081.03;5347233;26;94935;-93
2024/04/18 10:00:15;;;;;;;5.22;1.42;;;;;;;17.59;41.73;102088.03;5407325;26;94683;-94
2024/04/18 10:02:42;;;;;;;4.90;1.02;;;;;;;17.62;41.59;102076.63;5377109;26;94701;-93
2024/04/18 10:05:08;;;;;;;3.17;0.98;;;;;;;17.60;41.54;102084.53;5377227;26;94953;-93
2024/04/18 10:07:35;;;;;;;4.28;1.33;;;;;;;17.50;41.16;102088.00;5376457;26;97700;-92
2024/04/18 10:10:02;;;;;;;2.42;1.38;;;;;;;17.42;41.63;102087.13;5406821;26;98601;-93
2024/04/18 10:12:32;;;;;;;4.63;1.38;;;;;;;17.49;41.45;102083.63;5376557;26;94787;-94
2024/04/18 10:14:57;;;;;;;3.28;0.93;;;;;;;17.64;41.71;102078.38;5406638;26;95085;-92
2024/04/18 10:17:24;;;;;;;2.78;0.90;;;;;;;17.82;40.97;102079.31;5406770;26;97685;-93
2024/04/18 10:19:52;;;;;;;8.25;1.40;;;;;;;17.88;41.83;102072.31;5340254;26;95895;-90
2024/04/18 10:22:17;;;;;;;5.10;1.20;;;;;;;17.99;41.03;102079.38;5369442;26;94697;-86
2024/04/18 10:24:49;;;;;;;5.22;2.35;;;;;;;18.03;40.99;102087.28;5381796;26;95076;-88
2024/04/18 10:27:18;;;;;;;6.15;1.50;;;;;;;18.13;39.18;102082.00;5352445;26;95696;-89
2024/04/18 10:29:58;;;;;;;4.30;0.90;;;;;;;18.16;39.02;102074.09;5358300;26;95547;-88
2024/04/18 10:32:31;;;;;;;5.28;1.15;;;;;;;18.05;38.86;102088.16;5395817;26;94745;-89
2024/04/18 10:34:59;;;;;;;4.97;1.08;;;;;;;17.91;39.54;102086.41;5364246;26;95004;-89
2024/04/18 10:37:24;;;;;;;5.82;1.40;;;;;;;17.74;39.16;102087.22;5340352;26;98243;-90
2024/04/18 10:39:52;;;;;;;7.28;1.60;;;;;;;17.67;40.80;102088.94;5356889;26;97478;-89
2024/04/18 10:42:22;;;;;;;3.92;0.98;;;;;;;17.81;39.93;102083.72;5338429;26;94868;-88
2024/04/18 10:44:49;;;;;;;4.47;1.13;;;;;;;17.96;40.52;102089.94;5370258;26;94756;-89
2024/04/18 10:47:18;;;;;;;3.92;0.82;;;;;;;18.10;40.65;102097.88;5386600;26;95625;-90
2024/04/18 10:49:45;;;;;;;7.28;1.67;;;;;;;18.06;40.08;102089.94;5342005;26;94803;-90
2024/04/18 10:52:14;;;;;;;3.97;1.63;;;;;;;17.94;39.48;102094.34;5385557;26;94749;-89
2024/04/18 10:54:40;;;;;;;2.28;1.33;;;;;;;17.79;40.20;102095.13;5362766;26;94947;-91
2024/04/18 10:57:06;;;;;;;6.45;1.13;;;;;;;17.67;40.11;102091.59;5395800;26;98247;-89
2024/04/18 10:59:31;;;;;;;6.55;1.70;;;;;;;17.64;40.61;102088.94;5379204;26;97980;-88
2024/04/18 11:02:04;;;;;;;5.07;0.93;;;;;;;17.69;40.07;102086.31;5364228;26;94887;-89
2024/04/18 11:04:30;;;;;;;7.13;1.30;;;;;;;17.66;39.91;102087.19;5352491;26;94862;-88
2024/04/18 11:06:55;;;;;;;4.60;0.75;;;;;;;17.54;39.90;102089.78;5339219;26;95947;-90
2024/04/18 11:09:21;;;;;;;4.13;1.27;;;;;;;17.38;39.08;102088.84;5381533;26;95838;-88
2024/04/18 11:11:47;;;;;;;6.63;1.27;;;;;;;17.18;39.54;102093.13;5376801;26;94830;-88
2024/04/18 11:14:13;;;;;;;6.07;1.70;;;;;;;16.92;39.66;102092.13;5357526;26;94986;-89
2024/04/18 11:16:39;;;;;;;6.05;1.77;;;;;;;16.70;40.17;102087.53;5357149;26;97780;-89
2024/04/18 11:19:04;;;;;;;4.70;1.55;;;;;;;16.52;40.31;102098.81;5353173;26;95465;-88
2024/04/18 11:21:30;;;;;;;4.10;1.73;;;;;;;16.30;40.85;102098.66;5359412;26;95025;-88
2024/04/18 11:23:56;;;;;;;5.28;1.10;;;;;;;16.11;40.98;102100.25;5351784;26;94916;-88
2024/04/18 11:26:22;;;;;;;5.18;1.83;;;;;;;15.97;41.18;102099.19;5349238;26;95499;-89
2024/04/18 11:28:50;;;;;;;3.30;1.40;;;;;;;15.84;41.42;102102.59;5362197;26;98487;-91
2024/04/18 11:31:15;;;;;;;4.30;1.00;;;;;;;15.72;41.76;102101.56;5380358;26;94879;-88
2024/04/18 11:33:41;;;;;;;4.05;1.20;;;;;;;15.66;42.08;102098.84;5356633;26;95014;-88
2024/04/18 11:36:07;;;;;;;4.60;1.50;;;;;;;15.63;42.03;102090.03;5381054;26;95847;-90
2024/04/18 11:38:37;;;;;;;4.70;0.82;;;;;;;15.63;42.35;102088.28;5392926;26;95857;-89
2024/04/18 11:41:03;;;;;;;4.18;1.10;;;;;;;15.65;42.31;102085.69;5352062;26;94830;-89
2024/04/18 11:43:28;;;;;;;4.47;1.60;;;;;;;15.69;42.98;102095.38;5373305;26;94900;-91